Aviation Digital Data Service (ADDS)

Output produced by METARs form (1942 UTC 25 March 2017)
found at http://www.aviationweather.gov/adds/metars/
 
MHSC 251903Z AUTO 32011KT 9999 CLR 33/10 A2997 RMK AO2 WSHFT 00
TAF AMD MHSC 2501/2603 35009KT 9999 FEW060 QNH3006INS 
     BECMG 2506/2507 VRB06KT 9999 SCT060 QNH3006INS 
     BECMG 2514/2516 34009KT 9999 FEW080 QNH2997INS TX31/2521Z TN18/2511Z LAST NO AMDS AFT 2501 NEXT 2713
       
MHLC 251900Z 35007KT 9999 FEW030 29/21 Q1014 A2995 NOSIG
TAF MHLC 251625Z 2518/2618 35008KT 9999 SCT026 TX30/2520Z TN20/2612Z 
     BECMG 2604/2606 13004KT
       
MHRO 251900Z 09015KT 9999 FEW025 29/20 Q1015 A2997 NOSIG
TAF MHRO 251625Z 2518/2618 09015KT 9999 SCT022TCU TX29/2519Z TN24/2612Z
       
MHLM 251900Z 33005KT 9999 SCT030 SCT250 31/22 Q1014 A2995 NOSIG
TAF MHLM 251625Z 2518/2618 02012KT 9999 SCT028 TX31/2520Z TN20/2612Z 
     BECMG 2606/2608 16004KT
       
MHTG 251900Z 04008KT 9999 FEW034 31/09 Q1018 A3006 NOSIG
TAF MHTG 251625Z 2518/2618 07008KT 9999 SCT032 TX31/2521Z TN15/2612Z 
     BECMG 2608/2610 00000KT 7000 FEW008 
     BECMG 2613/2615 06006KT 9999 FEW032
       
MHTE 251900Z 04006KT 9999 FEW024TCU 30/23 Q1014 TCU SW HZ